createdAt,value
2018-12-05T00:01:54.480Z,36.97
2018-12-05T00:04:20.468Z,36.97
2018-12-05T00:06:46.460Z,36.84
2018-12-05T00:09:12.468Z,36.75
2018-12-05T00:11:38.568Z,36.98
2018-12-05T00:14:04.606Z,36.94
2018-12-05T00:16:30.600Z,36.79
2018-12-05T00:18:56.620Z,36.75
2018-12-05T00:21:22.591Z,36.74
2018-12-05T00:23:48.589Z,36.69
2018-12-05T00:26:14.564Z,36.40
2018-12-05T00:28:40.559Z,36.53
2018-12-05T00:31:06.549Z,36.67
2018-12-05T00:33:32.569Z,36.33
2018-12-05T00:35:58.540Z,36.67
2018-12-05T00:38:24.539Z,36.49
2018-12-05T00:40:50.526Z,36.57
2018-12-05T00:43:16.496Z,36.62
2018-12-05T00:45:42.486Z,36.38
2018-12-05T00:48:08.469Z,36.43
2018-12-05T00:50:34.446Z,36.46
2018-12-05T00:53:00.436Z,36.43
2018-12-05T00:55:26.418Z,36.39
2018-12-05T00:57:52.406Z,36.35
2018-12-05T01:00:18.368Z,36.27
2018-12-05T01:02:44.375Z,36.31
2018-12-05T01:05:10.347Z,36.35
2018-12-05T01:07:36.346Z,36.08
2018-12-05T01:10:02.333Z,35.91
2018-12-05T01:12:28.318Z,35.91
2018-12-05T01:14:54.287Z,35.78
2018-12-05T01:17:20.277Z,35.73
2018-12-05T01:19:46.258Z,36.16
2018-12-05T01:22:12.281Z,36.10
2018-12-05T01:24:38.263Z,36.08
2018-12-05T01:27:04.239Z,36.18
2018-12-05T01:29:30.218Z,36.15
2018-12-05T01:31:56.247Z,36.22
2018-12-05T01:34:22.230Z,36.19
2018-12-05T01:36:48.230Z,36.22
2018-12-05T01:39:14.199Z,36.35
2018-12-05T01:41:40.175Z,36.15
2018-12-05T01:44:06.183Z,36.25
2018-12-05T01:46:32.151Z,36.09
2018-12-05T01:48:58.137Z,36.27
2018-12-05T01:51:24.128Z,36.01
2018-12-05T01:53:50.134Z,36.27
2018-12-05T01:56:16.114Z,36.13
2018-12-05T01:58:42.105Z,36.10
2018-12-05T02:01:08.104Z,36.26
2018-12-05T02:03:34.088Z,36.15
2018-12-05T02:06:00.072Z,36.22
2018-12-05T02:08:26.072Z,36.33
2018-12-05T02:10:52.048Z,36.23
2018-12-05T02:13:18.031Z,35.97
2018-12-05T02:15:44.012Z,36.15
2018-12-05T02:18:10.012Z,36.05
2018-12-05T02:20:35.992Z,36.23
2018-12-05T02:23:01.982Z,36.09
2018-12-05T02:25:27.950Z,36.19
2018-12-05T02:27:53.938Z,36.17
2018-12-05T02:30:19.945Z,36.17
2018-12-05T02:32:45.937Z,36.21
2018-12-05T02:35:11.947Z,36.15
2018-12-05T02:37:37.940Z,35.90
2018-12-05T02:40:03.931Z,36.11
2018-12-05T02:42:29.947Z,35.99
2018-12-05T02:44:57.428Z,35.90
2018-12-05T02:47:21.989Z,35.89
2018-12-05T02:49:47.958Z,35.97
2018-12-05T02:52:13.940Z,36.04
2018-12-05T02:54:39.922Z,36.09
2018-12-05T02:57:05.919Z,36.23
2018-12-05T02:59:31.894Z,36.11
2018-12-05T03:01:57.881Z,36.00
2018-12-05T03:04:23.861Z,35.93
2018-12-05T03:06:49.848Z,35.89
2018-12-05T03:09:15.830Z,36.03
2018-12-05T03:11:41.826Z,35.85
2018-12-05T03:14:07.789Z,35.92
2018-12-05T03:16:33.772Z,35.79
2018-12-05T03:18:59.766Z,35.78
2018-12-05T03:21:26.636Z,36.02
2018-12-05T03:23:52.626Z,35.93
2018-12-05T03:26:18.617Z,35.94
2018-12-05T03:28:44.597Z,35.95
2018-12-05T03:31:10.592Z,35.96
2018-12-05T03:33:36.574Z,35.95
2018-12-05T03:36:02.566Z,35.84
2018-12-05T03:38:28.539Z,35.82
2018-12-05T03:40:54.660Z,36.01
2018-12-05T03:43:20.751Z,35.98
2018-12-05T03:45:46.739Z,35.78
2018-12-05T03:48:12.755Z,35.79
2018-12-05T03:50:38.757Z,35.92
2018-12-05T03:53:04.722Z,36.11
2018-12-05T03:55:30.711Z,35.84
2018-12-05T03:57:56.705Z,35.89
2018-12-05T04:00:22.694Z,35.79
2018-12-05T04:02:48.678Z,35.80
2018-12-05T04:05:14.681Z,36.00
2018-12-05T04:07:40.649Z,35.73
2018-12-05T04:10:06.626Z,35.91
2018-12-05T04:12:40.263Z,35.91
2018-12-05T04:14:58.609Z,35.81
2018-12-05T04:17:24.582Z,35.99
2018-12-05T04:19:50.615Z,36.04
2018-12-05T04:22:16.581Z,35.78
2018-12-05T04:24:42.563Z,36.00
2018-12-05T04:27:08.566Z,35.95
2018-12-05T04:29:34.552Z,35.79
2018-12-05T04:32:00.530Z,35.70
2018-12-05T04:34:26.522Z,35.69
2018-12-05T04:36:52.503Z,35.75
2018-12-05T04:39:18.483Z,35.95
2018-12-05T04:41:44.470Z,35.77
2018-12-05T04:44:10.466Z,35.75
2018-12-05T04:46:36.431Z,35.85
2018-12-05T04:49:02.413Z,35.89
2018-12-05T04:51:28.421Z,35.92
2018-12-05T04:53:54.401Z,35.90
2018-12-05T04:56:20.409Z,35.98
2018-12-05T04:58:46.403Z,35.67
2018-12-05T05:01:12.436Z,35.78
2018-12-05T05:03:38.429Z,35.87
2018-12-05T05:06:04.432Z,35.73
2018-12-05T05:08:30.418Z,35.77
2018-12-05T05:10:56.432Z,35.63
2018-12-05T05:13:22.402Z,35.71
2018-12-05T05:15:48.391Z,35.83
2018-12-05T05:18:14.378Z,35.74
2018-12-05T05:20:40.371Z,35.70
2018-12-05T05:23:06.386Z,35.92
2018-12-05T05:25:32.361Z,35.88
2018-12-05T05:27:58.368Z,35.71
2018-12-05T05:30:24.347Z,35.80
2018-12-05T05:32:50.351Z,35.94
2018-12-05T05:35:16.317Z,35.99
2018-12-05T05:37:42.325Z,35.82
2018-12-05T05:40:08.300Z,35.95
2018-12-05T05:42:34.282Z,35.81
2018-12-05T05:45:00.273Z,35.95
2018-12-05T05:47:26.283Z,35.84
2018-12-05T05:49:52.278Z,35.71
2018-12-05T05:52:18.259Z,35.79
2018-12-05T05:54:44.247Z,35.82
2018-12-05T05:57:10.338Z,35.92
2018-12-05T05:59:36.447Z,35.79
2018-12-05T06:02:02.490Z,35.76
2018-12-05T06:04:28.533Z,35.69
2018-12-05T06:06:54.619Z,35.73
2018-12-05T06:09:20.676Z,36.11
2018-12-05T06:11:46.769Z,36.29
2018-12-05T06:14:12.801Z,36.49
2018-12-05T06:16:38.830Z,36.57
2018-12-05T06:19:05.397Z,36.70
2018-12-05T06:21:31.073Z,36.74
2018-12-05T06:23:57.105Z,36.91
2018-12-05T06:26:23.255Z,36.98
2018-12-05T06:28:49.275Z,37.08
2018-12-05T06:31:15.353Z,37.19
2018-12-05T06:33:41.386Z,37.21
2018-12-05T06:36:07.525Z,37.29
2018-12-05T06:38:33.549Z,37.42
2018-12-05T06:40:59.677Z,37.52
2018-12-05T06:43:25.714Z,37.26
2018-12-05T06:45:51.828Z,36.92
2018-12-05T06:48:17.860Z,36.81
2018-12-05T06:50:43.982Z,36.69
2018-12-05T06:53:10.008Z,36.53
2018-12-05T06:55:39.140Z,36.46
2018-12-05T06:58:02.171Z,36.55
2018-12-05T07:00:28.299Z,36.54
2018-12-05T07:02:54.410Z,36.54
2018-12-05T07:05:20.539Z,36.53
2018-12-05T07:07:46.514Z,36.72
2018-12-05T07:10:12.527Z,36.74
2018-12-05T07:12:38.557Z,36.82
2018-12-05T07:15:04.687Z,36.82
2018-12-05T07:17:30.670Z,36.72
2018-12-05T07:19:56.653Z,36.68
2018-12-05T07:22:22.662Z,36.76
2018-12-05T07:24:48.662Z,36.63
2018-12-05T07:27:14.650Z,36.71
2018-12-05T07:29:40.647Z,37.46
2018-12-05T07:32:06.658Z,37.00
2018-12-05T07:34:32.648Z,36.83
2018-12-05T07:36:58.635Z,36.76
2018-12-05T07:39:24.631Z,36.80
2018-12-05T07:41:50.606Z,36.62
2018-12-05T07:44:16.599Z,36.61
2018-12-05T07:46:42.588Z,36.65
2018-12-05T07:49:08.664Z,36.61
2018-12-05T07:51:34.635Z,36.42
2018-12-05T07:54:00.788Z,36.05
2018-12-05T07:56:26.758Z,35.97
2018-12-05T07:58:52.749Z,35.92
2018-12-05T08:01:18.755Z,35.90
2018-12-05T08:03:44.757Z,35.94
2018-12-05T08:06:10.733Z,35.77
2018-12-05T08:08:36.724Z,35.91
2018-12-05T08:11:02.707Z,36.06
2018-12-05T08:13:28.806Z,35.79
2018-12-05T08:15:54.838Z,35.85
2018-12-05T08:18:20.848Z,36.05
2018-12-05T08:20:46.916Z,36.23
2018-12-05T08:23:13.106Z,36.22
2018-12-05T08:25:40.777Z,36.35
2018-12-05T08:28:05.231Z,36.35
2018-12-05T08:30:31.224Z,36.47
2018-12-05T08:32:57.223Z,36.30
2018-12-05T08:35:23.184Z,36.38
2018-12-05T08:37:49.188Z,36.40
2018-12-05T08:40:15.864Z,36.40
2018-12-05T08:42:42.197Z,36.33
2018-12-05T08:45:08.161Z,36.38
2018-12-05T08:47:34.146Z,36.14
2018-12-05T08:50:00.141Z,36.19
2018-12-05T08:52:26.127Z,35.80
2018-12-05T08:54:52.118Z,36.13
2018-12-05T08:57:18.196Z,36.10
2018-12-05T08:59:44.717Z,36.13
2018-12-05T09:02:10.665Z,35.77
2018-12-05T09:04:36.649Z,35.95
2018-12-05T09:07:02.649Z,35.27
2018-12-05T09:09:28.641Z,34.62
2018-12-05T09:11:54.643Z,33.85
2018-12-05T09:14:20.648Z,34.88
2018-12-05T09:16:46.629Z,35.49
2018-12-05T09:19:12.623Z,36.04
2018-12-05T09:21:38.667Z,36.24
2018-12-05T09:24:05.018Z,36.34
2018-12-05T09:26:30.999Z,36.21
2018-12-05T09:28:57.840Z,36.11
2018-12-05T09:31:23.829Z,36.28
2018-12-05T09:33:49.813Z,36.26
2018-12-05T09:36:15.826Z,36.03
2018-12-05T09:38:41.805Z,36.26
2018-12-05T09:41:07.858Z,36.33
2018-12-05T09:43:33.881Z,36.27
2018-12-05T09:45:59.924Z,36.26
2018-12-05T09:48:26.293Z,36.32
2018-12-05T09:50:55.098Z,36.45
2018-12-05T09:53:21.093Z,36.35
2018-12-05T09:55:47.402Z,36.41
2018-12-05T09:58:13.398Z,36.34
2018-12-05T10:00:39.400Z,36.43
2018-12-05T10:03:05.383Z,36.48
2018-12-05T10:05:31.368Z,36.44
2018-12-05T10:07:57.395Z,36.35
2018-12-05T10:10:23.370Z,36.38
2018-12-05T10:12:49.367Z,36.32
2018-12-05T10:15:15.375Z,36.07
2018-12-05T10:17:42.812Z,35.90
2018-12-05T10:20:07.344Z,35.88
2018-12-05T10:22:33.361Z,35.80
2018-12-05T10:24:59.373Z,35.75
2018-12-05T10:27:25.344Z,35.46
2018-12-05T10:29:51.359Z,35.37
2018-12-05T10:32:17.331Z,34.93
2018-12-05T10:34:43.310Z,35.25
2018-12-05T10:37:09.303Z,35.17
2018-12-05T10:39:35.285Z,34.93
2018-12-05T10:42:01.253Z,34.80
2018-12-05T10:44:27.248Z,34.73
2018-12-05T10:46:53.233Z,34.89
2018-12-05T10:49:19.213Z,34.81
2018-12-05T10:51:45.225Z,34.73
2018-12-05T10:54:11.239Z,34.71
2018-12-05T10:56:37.207Z,34.22
2018-12-05T10:59:03.197Z,34.48
2018-12-05T11:01:29.188Z,34.61
2018-12-05T11:03:55.185Z,34.59
2018-12-05T11:06:21.167Z,34.23
2018-12-05T11:08:47.157Z,34.17
2018-12-05T11:11:13.141Z,34.48
2018-12-05T11:13:39.113Z,34.34
2018-12-05T11:16:05.109Z,34.28
2018-12-05T11:18:32.816Z,34.25
2018-12-05T11:20:57.206Z,34.24
2018-12-05T11:23:23.187Z,34.30
2018-12-05T11:25:49.185Z,34.15
2018-12-05T11:28:15.274Z,34.02
2018-12-05T11:30:41.257Z,34.04
2018-12-05T11:33:07.251Z,34.00
2018-12-05T11:35:33.228Z,34.13
2018-12-05T11:37:59.215Z,33.84
2018-12-05T11:40:25.236Z,33.80
2018-12-05T11:42:51.240Z,33.24
2018-12-05T11:45:17.224Z,33.59
2018-12-05T11:47:43.227Z,33.28
2018-12-05T11:50:09.192Z,33.79
2018-12-05T11:52:35.187Z,33.90
2018-12-05T11:55:01.177Z,33.83
2018-12-05T11:57:27.213Z,33.54
2018-12-05T11:59:53.205Z,33.56
2018-12-05T12:02:22.332Z,33.84
2018-12-05T12:04:45.201Z,33.85
2018-12-05T12:07:11.193Z,33.81
2018-12-05T12:09:37.209Z,33.75
2018-12-05T12:12:03.194Z,33.45
2018-12-05T12:14:29.182Z,33.67
2018-12-05T12:16:55.231Z,33.54
2018-12-05T12:19:21.225Z,33.55
2018-12-05T12:21:47.198Z,33.68
2018-12-05T12:24:13.190Z,33.66
2018-12-05T12:26:39.165Z,33.63
2018-12-05T12:29:05.254Z,33.33
2018-12-05T12:31:31.154Z,33.39
2018-12-05T12:33:57.303Z,33.21
2018-12-05T12:36:23.269Z,33.35
2018-12-05T12:38:49.280Z,33.19
2018-12-05T12:41:15.266Z,33.27
2018-12-05T12:43:41.256Z,33.34
2018-12-05T12:46:07.238Z,33.48
2018-12-05T12:48:33.231Z,33.15
2018-12-05T12:50:59.201Z,33.18
2018-12-05T12:53:25.199Z,33.08
2018-12-05T12:55:51.179Z,33.12
2018-12-05T12:58:17.166Z,33.25
2018-12-05T13:00:43.138Z,33.33
2018-12-05T13:03:09.136Z,33.03
2018-12-05T13:05:35.121Z,32.73
2018-12-05T13:08:01.124Z,32.55
2018-12-05T13:10:27.111Z,33.02
2018-12-05T13:12:53.115Z,33.12
2018-12-05T13:15:19.095Z,33.22
2018-12-05T13:17:45.086Z,32.93
2018-12-05T13:20:11.074Z,33.09
2018-12-05T13:22:37.084Z,33.21
2018-12-05T13:25:03.071Z,33.00
2018-12-05T13:27:29.046Z,33.17
2018-12-05T13:29:55.137Z,33.03
2018-12-05T13:32:21.144Z,32.72
2018-12-05T13:34:47.133Z,33.03
2018-12-05T13:37:13.114Z,32.70
2018-12-05T13:39:39.110Z,32.89
2018-12-05T13:42:05.109Z,32.63
2018-12-05T13:44:31.100Z,32.96
2018-12-05T13:46:57.106Z,32.80
2018-12-05T13:49:23.090Z,32.65
2018-12-05T13:51:49.083Z,32.71
2018-12-05T13:54:15.051Z,32.43
2018-12-05T13:56:41.055Z,32.94
2018-12-05T13:59:07.041Z,32.82
2018-12-05T14:01:33.023Z,32.58
2018-12-05T14:03:59.015Z,32.94
2018-12-05T14:06:24.986Z,32.92
2018-12-05T14:08:50.967Z,32.69
2018-12-05T14:11:16.961Z,32.81
2018-12-05T14:13:42.954Z,32.06
2018-12-05T14:16:08.944Z,32.63
2018-12-05T14:18:34.928Z,32.84
2018-12-05T14:21:00.924Z,32.71
2018-12-05T14:23:26.895Z,32.95
2018-12-05T14:25:52.900Z,32.65
2018-12-05T14:28:18.887Z,32.88
2018-12-05T14:30:46.502Z,32.72
2018-12-05T14:33:10.865Z,32.59
2018-12-05T14:35:36.871Z,32.78
2018-12-05T14:38:02.863Z,33.03
2018-12-05T14:40:28.872Z,33.03
2018-12-05T14:42:54.864Z,33.19
2018-12-05T14:45:20.841Z,33.34
2018-12-05T14:47:46.815Z,33.04
2018-12-05T14:50:12.817Z,33.43
2018-12-05T14:52:38.798Z,33.48
2018-12-05T14:55:04.819Z,33.66
2018-12-05T14:57:30.918Z,33.60
2018-12-05T14:59:56.814Z,33.70
2018-12-05T15:02:22.786Z,33.52
2018-12-05T15:04:48.788Z,33.46
2018-12-05T15:07:14.779Z,33.57
2018-12-05T15:09:40.766Z,33.64
2018-12-05T15:12:06.788Z,33.66
2018-12-05T15:14:32.772Z,33.53
2018-12-05T15:16:58.768Z,33.66
2018-12-05T15:19:24.750Z,33.64
2018-12-05T15:21:50.749Z,33.50
2018-12-05T15:24:16.759Z,33.57
2018-12-05T15:26:42.730Z,33.47
2018-12-05T15:29:08.723Z,33.45
2018-12-05T15:31:34.714Z,33.50
2018-12-05T15:34:00.703Z,33.43
2018-12-05T15:36:26.704Z,33.42
2018-12-05T15:38:52.707Z,33.34
2018-12-05T15:41:18.708Z,33.46
2018-12-05T15:43:44.705Z,33.47
2018-12-05T15:46:10.802Z,33.28
2018-12-05T15:48:36.684Z,33.42
2018-12-05T15:51:02.671Z,33.17
2018-12-05T15:53:28.691Z,33.47
2018-12-05T15:55:54.680Z,32.96
2018-12-05T15:58:20.672Z,33.33
2018-12-05T16:00:46.657Z,33.43
2018-12-05T16:03:12.644Z,33.38
2018-12-05T16:05:38.618Z,33.43
2018-12-05T16:08:04.607Z,33.32
2018-12-05T16:10:30.597Z,33.35
2018-12-05T16:12:56.689Z,33.40
2018-12-05T16:15:22.675Z,33.37
2018-12-05T16:17:48.670Z,33.48
2018-12-05T16:20:14.649Z,33.31
2018-12-05T16:22:40.655Z,33.28
2018-12-05T16:25:06.634Z,33.26
2018-12-05T16:27:32.625Z,33.22
2018-12-05T16:29:58.588Z,33.33
2018-12-05T16:32:24.589Z,33.25
2018-12-05T16:34:50.714Z,33.33
2018-12-05T16:37:16.717Z,33.35
2018-12-05T16:39:42.715Z,32.76
2018-12-05T16:42:08.708Z,33.33
2018-12-05T16:44:34.690Z,33.19
2018-12-05T16:47:00.687Z,33.18
2018-12-05T16:49:26.692Z,33.32
2018-12-05T16:51:52.714Z,33.35
2018-12-05T16:54:18.687Z,33.33
2018-12-05T16:56:44.696Z,33.49
2018-12-05T16:59:10.711Z,33.23
2018-12-05T17:01:36.702Z,33.36
2018-12-05T17:04:02.703Z,33.45
2018-12-05T17:06:28.689Z,33.50
2018-12-05T17:08:54.674Z,33.40
2018-12-05T17:11:20.676Z,33.47
2018-12-05T17:13:46.652Z,33.71
2018-12-05T17:16:17.840Z,33.59
2018-12-05T17:18:38.678Z,33.56
2018-12-05T17:21:04.762Z,33.60
2018-12-05T17:23:30.782Z,33.82
2018-12-05T17:25:56.757Z,33.70
2018-12-05T17:28:22.944Z,33.60
2018-12-05T17:30:49.002Z,33.78
2018-12-05T17:33:14.991Z,33.87
2018-12-05T17:35:40.977Z,33.99
2018-12-05T17:38:06.969Z,33.78
2018-12-05T17:40:32.961Z,33.97
2018-12-05T17:42:58.958Z,34.12
2018-12-05T17:45:24.963Z,33.91
2018-12-05T17:47:50.953Z,33.95
2018-12-05T17:50:16.935Z,34.09
2018-12-05T17:52:42.940Z,33.92
2018-12-05T17:55:09.251Z,34.10
2018-12-05T17:57:35.227Z,34.04
2018-12-05T18:00:01.239Z,34.02
2018-12-05T18:02:27.226Z,34.07
2018-12-05T18:04:53.212Z,34.24
2018-12-05T18:07:19.211Z,34.35
2018-12-05T18:09:45.392Z,34.50
2018-12-05T18:12:11.381Z,34.63
2018-12-05T18:14:37.377Z,34.68
2018-12-05T18:17:03.361Z,34.77
2018-12-05T18:19:29.355Z,34.78
2018-12-05T18:21:55.371Z,34.85
2018-12-05T18:24:21.379Z,34.97
2018-12-05T18:26:47.374Z,35.12
2018-12-05T18:29:13.358Z,35.19
2018-12-05T18:31:39.343Z,35.17
2018-12-05T18:34:05.385Z,35.26
2018-12-05T18:36:31.388Z,35.36
2018-12-05T18:38:57.388Z,35.38
2018-12-05T18:41:23.374Z,35.45
2018-12-05T18:43:50.175Z,35.49
2018-12-05T18:46:16.510Z,35.65
2018-12-05T18:48:42.539Z,35.67
2018-12-05T18:51:08.524Z,35.70
2018-12-05T18:53:34.566Z,35.78
2018-12-05T18:56:00.558Z,35.81
2018-12-05T18:58:26.541Z,35.92
2018-12-05T19:00:52.516Z,35.95
2018-12-05T19:03:18.560Z,36.03
2018-12-05T19:05:45.117Z,36.10
2018-12-05T19:08:11.856Z,36.08
2018-12-05T19:10:38.046Z,36.16
2018-12-05T19:13:04.828Z,36.07
2018-12-05T19:15:31.570Z,36.14
2018-12-05T19:17:58.107Z,36.20
2018-12-05T19:20:24.848Z,36.28
2018-12-05T19:22:51.588Z,36.39
2018-12-05T19:25:18.329Z,35.95
2018-12-05T19:27:45.071Z,36.01
2018-12-05T19:30:11.817Z,36.08
2018-12-05T19:32:38.553Z,36.08
2018-12-05T19:35:04.564Z,36.12
2018-12-05T19:37:30.546Z,36.07
2018-12-05T19:39:56.527Z,36.12
2018-12-05T19:42:22.531Z,36.07
2018-12-05T19:44:48.523Z,35.96
2018-12-05T19:47:14.516Z,35.98
2018-12-05T19:49:40.484Z,35.86
2018-12-05T19:52:06.487Z,35.82
2018-12-05T19:54:32.462Z,35.82
2018-12-05T19:56:58.459Z,35.97
2018-12-05T19:59:24.443Z,36.00
2018-12-05T20:01:50.424Z,35.89
2018-12-05T20:04:16.405Z,35.92
2018-12-05T20:06:42.399Z,36.01
2018-12-05T20:09:08.393Z,36.11
2018-12-05T20:11:34.425Z,36.18
2018-12-05T20:14:00.508Z,36.30
2018-12-05T20:16:26.491Z,36.30
2018-12-05T20:18:54.688Z,36.37
2018-12-05T20:21:20.687Z,36.49
2018-12-05T20:23:46.737Z,36.64
2018-12-05T20:26:12.732Z,36.85
2018-12-05T20:28:38.896Z,36.72
2018-12-05T20:31:04.908Z,36.80
2018-12-05T20:33:30.876Z,37.01
2018-12-05T20:35:56.919Z,37.06
2018-12-05T20:38:22.906Z,36.99
2018-12-05T20:40:48.886Z,37.08
2018-12-05T20:43:14.871Z,37.15
2018-12-05T20:45:40.864Z,37.16
2018-12-05T20:48:06.852Z,37.24
2018-12-05T20:50:32.839Z,37.31
2018-12-05T20:52:58.827Z,37.32
2018-12-05T20:55:24.828Z,37.27
2018-12-05T20:57:50.891Z,37.30
2018-12-05T21:00:16.955Z,37.29
2018-12-05T21:02:42.940Z,37.27
2018-12-05T21:05:08.920Z,37.23
2018-12-05T21:07:34.902Z,37.15
2018-12-05T21:10:00.901Z,37.09
2018-12-05T21:12:26.873Z,37.04
2018-12-05T21:14:52.868Z,37.21
2018-12-05T21:17:18.854Z,37.28
2018-12-05T21:19:44.848Z,37.27
2018-12-05T21:22:10.819Z,37.06
2018-12-05T21:24:36.819Z,37.01
2018-12-05T21:27:02.807Z,36.97
2018-12-05T21:29:28.806Z,36.85
2018-12-05T21:31:54.801Z,36.86
2018-12-05T21:34:20.780Z,36.79
2018-12-05T21:36:46.776Z,36.76
2018-12-05T21:39:12.765Z,36.73
2018-12-05T21:41:38.975Z,36.69
2018-12-05T21:44:04.965Z,36.65
2018-12-05T21:46:30.937Z,36.60
2018-12-05T21:48:56.939Z,36.58
2018-12-05T21:51:22.904Z,36.58
2018-12-05T21:53:48.953Z,36.52
2018-12-05T21:56:14.954Z,36.47
2018-12-05T21:58:40.936Z,36.45
2018-12-05T22:01:06.946Z,36.40
2018-12-05T22:03:32.952Z,36.45
2018-12-05T22:05:58.927Z,36.40
2018-12-05T22:08:24.918Z,36.41
2018-12-05T22:10:50.907Z,36.35
2018-12-05T22:13:16.897Z,36.34
2018-12-05T22:15:42.860Z,36.46
2018-12-05T22:18:08.865Z,36.45
2018-12-05T22:20:34.847Z,36.29
2018-12-05T22:23:00.817Z,36.17
2018-12-05T22:25:26.805Z,36.21
2018-12-05T22:27:52.800Z,36.14
2018-12-05T22:30:18.786Z,35.95
2018-12-05T22:32:44.789Z,35.87
2018-12-05T22:35:10.773Z,35.94
2018-12-05T22:37:36.743Z,35.82
2018-12-05T22:40:02.734Z,35.61
2018-12-05T22:42:28.740Z,35.52
2018-12-05T22:44:54.730Z,35.71
2018-12-05T22:47:20.711Z,35.41
2018-12-05T22:49:46.706Z,35.42
2018-12-05T22:52:12.672Z,35.46
2018-12-05T22:54:38.671Z,35.08
2018-12-05T22:57:04.666Z,35.45
2018-12-05T22:59:30.664Z,35.36
2018-12-05T23:01:56.646Z,35.17
2018-12-05T23:04:22.630Z,35.18
2018-12-05T23:06:48.617Z,34.89
2018-12-05T23:09:14.598Z,35.13
2018-12-05T23:11:40.591Z,34.74
2018-12-05T23:14:06.582Z,34.69
2018-12-05T23:16:32.598Z,34.69
2018-12-05T23:18:58.582Z,34.57
2018-12-05T23:21:24.565Z,34.73
2018-12-05T23:23:50.570Z,34.33
2018-12-05T23:26:16.536Z,34.44
2018-12-05T23:28:42.534Z,34.71
2018-12-05T23:31:08.505Z,34.68
2018-12-05T23:33:34.501Z,34.35
2018-12-05T23:36:00.491Z,34.62
2018-12-05T23:38:26.482Z,34.41
2018-12-05T23:40:52.453Z,34.24
2018-12-05T23:43:18.435Z,34.30
2018-12-05T23:45:44.416Z,34.15
2018-12-05T23:48:10.400Z,34.24
2018-12-05T23:50:36.386Z,34.24
2018-12-05T23:53:02.385Z,34.04
2018-12-05T23:55:28.361Z,34.23
2018-12-05T23:57:54.346Z,33.60
